KMDJ/MDJ METAR and TAF weather

Enter ICAO airport designator
Station Type Date Time Source
KMDJ METAR 2019/04/25 08:35 UTC NOAA

KMDJ 250835Z AUTO 13009KT 10SM CLR 23/21 A2988 RMK A01


Station Type Date Time Source
KMDJ Decoded METAR 2019/04/25 08:35 UTC NOAA

Mississippi Canyon, LA, United States (KMDJ) 28-38-33N 089-47-39W
Apr 25, 2019 - 04:35 AM EDT / 2019.04.25 0835 UTC
Wind: from the SE (130 degrees) at 10 MPH (9 KT):0
Visibility: 10 mile(s):0
Sky conditions: clear
Temperature: 73 F (23 C)
Dew Point: 69 F (21 C)
Relative Humidity: 88%
Pressure (altimeter): 29.88 in. Hg (1011 hPa)
ob: KMDJ 250835Z AUTO 13009KT 10SM CLR 23/21 A2988 RMK A01
cycle: 8

Station Type Date Time Source
KMDJ TAF UTC NOAA

Error!

Example: see airport list